createdAt,value
2018-03-29T00:00:09.554Z,10.30
2018-03-29T00:01:08.439Z,10.30
2018-03-29T00:02:08.337Z,10.29
2018-03-29T00:03:08.433Z,10.29
2018-03-29T00:04:08.341Z,10.29
2018-03-29T00:05:08.383Z,10.29
2018-03-29T00:06:08.375Z,10.28
2018-03-29T00:07:08.374Z,10.28
2018-03-29T00:08:08.391Z,10.28
2018-03-29T00:09:08.394Z,10.27
2018-03-29T00:10:08.398Z,10.26
2018-03-29T00:11:08.394Z,10.27
2018-03-29T00:12:08.409Z,10.28
2018-03-29T00:13:08.409Z,10.28
2018-03-29T00:14:08.423Z,10.28
2018-03-29T00:15:08.459Z,10.28
2018-03-29T00:16:08.433Z,10.28
2018-03-29T00:17:08.335Z,10.29
2018-03-29T00:18:08.344Z,10.30
2018-03-29T00:19:08.354Z,10.29
2018-03-29T00:20:08.367Z,10.28
2018-03-29T00:21:08.366Z,10.29
2018-03-29T00:22:08.457Z,10.30
2018-03-29T00:23:08.387Z,10.30
2018-03-29T00:24:10.253Z,10.30
2018-03-29T00:25:08.295Z,10.29
2018-03-29T00:26:08.334Z,10.30
2018-03-29T00:27:08.438Z,10.30
2018-03-29T00:28:08.417Z,10.29
2018-03-29T00:29:08.444Z,10.26
2018-03-29T00:30:11.192Z,10.25
2018-03-29T00:31:08.447Z,10.23
2018-03-29T00:32:08.359Z,10.23
2018-03-29T00:33:08.354Z,10.22
2018-03-29T00:34:08.357Z,10.24
2018-03-29T00:35:08.380Z,10.22
2018-03-29T00:36:11.349Z,10.19
2018-03-29T00:37:08.385Z,10.20
2018-03-29T00:38:08.383Z,10.20
2018-03-29T00:39:08.297Z,10.17
2018-03-29T00:40:08.405Z,10.14
2018-03-29T00:41:08.420Z,10.12
2018-03-29T00:42:08.415Z,10.11
2018-03-29T00:43:08.435Z,10.12
2018-03-29T00:44:08.432Z,10.11
2018-03-29T00:45:08.439Z,10.09
2018-03-29T00:46:08.451Z,10.08
2018-03-29T00:47:08.350Z,10.05
2018-03-29T00:48:08.357Z,10.04
2018-03-29T00:49:08.366Z,10.05
2018-03-29T00:50:08.373Z,10.05
2018-03-29T00:51:08.385Z,10.04
2018-03-29T00:52:08.394Z,10.05
2018-03-29T00:53:08.399Z,10.04
2018-03-29T00:54:08.410Z,10.03
2018-03-29T00:55:08.401Z,10.01
2018-03-29T00:56:08.412Z,10.02
2018-03-29T00:57:08.429Z,10.03
2018-03-29T00:58:08.431Z,10.05
2018-03-29T00:59:08.446Z,10.05
2018-03-29T01:00:09.586Z,10.08
2018-03-29T01:01:08.352Z,10.08
2018-03-29T01:02:08.357Z,10.07
2018-03-29T01:03:08.468Z,10.06
2018-03-29T01:04:08.382Z,10.06
2018-03-29T01:05:08.684Z,10.05
2018-03-29T01:06:11.357Z,10.05
2018-03-29T01:07:08.406Z,10.02
2018-03-29T01:08:08.402Z,10.03
2018-03-29T01:09:08.407Z,10.04
2018-03-29T01:10:08.419Z,10.04
2018-03-29T01:11:08.430Z,10.04
2018-03-29T01:12:08.430Z,10.04
2018-03-29T01:13:08.445Z,10.05
2018-03-29T01:14:08.450Z,10.04
2018-03-29T01:15:08.449Z,10.04
2018-03-29T01:16:08.469Z,10.06
2018-03-29T01:17:08.466Z,10.07
2018-03-29T01:18:08.379Z,10.06
2018-03-29T01:19:08.481Z,10.06
2018-03-29T01:20:08.389Z,10.07
2018-03-29T01:21:08.389Z,10.08
2018-03-29T01:22:08.401Z,10.09
2018-03-29T01:23:08.414Z,10.11
2018-03-29T01:24:11.309Z,10.10
2018-03-29T01:25:08.416Z,10.10
2018-03-29T01:26:08.438Z,10.11
2018-03-29T01:27:08.428Z,10.12
2018-03-29T01:28:08.453Z,10.15
2018-03-29T01:29:08.453Z,10.18
2018-03-29T01:30:08.471Z,10.20
2018-03-29T01:31:08.474Z,10.19
2018-03-29T01:32:08.482Z,10.20
2018-03-29T01:33:08.386Z,10.21
2018-03-29T01:34:08.383Z,10.22
2018-03-29T01:35:08.389Z,10.23
2018-03-29T01:36:08.404Z,10.26
2018-03-29T01:37:08.400Z,10.27
2018-03-29T01:38:08.418Z,10.28
2018-03-29T01:39:08.434Z,10.30
2018-03-29T01:40:08.450Z,10.32
2018-03-29T01:41:08.438Z,10.33
2018-03-29T01:42:08.450Z,10.32
2018-03-29T01:43:08.458Z,10.32
2018-03-29T01:44:08.462Z,10.33
2018-03-29T01:45:08.467Z,10.34
2018-03-29T01:46:08.482Z,10.32
2018-03-29T01:47:08.482Z,10.30
2018-03-29T01:48:08.286Z,10.29
2018-03-29T01:49:08.397Z,10.25
2018-03-29T01:50:08.402Z,10.22
2018-03-29T01:51:08.407Z,10.20
2018-03-29T01:52:08.432Z,10.20
2018-03-29T01:53:14.874Z,10.16
2018-03-29T01:54:08.544Z,10.15
2018-03-29T01:55:08.446Z,10.13
2018-03-29T01:56:08.466Z,10.11
2018-03-29T01:57:08.450Z,10.09
2018-03-29T01:58:08.461Z,10.07
2018-03-29T01:59:11.272Z,10.06
2018-03-29T02:00:09.598Z,10.06
2018-03-29T02:01:08.511Z,10.06
2018-03-29T02:02:08.486Z,10.06
2018-03-29T02:03:08.301Z,10.05
2018-03-29T02:04:08.397Z,10.02
2018-03-29T02:05:08.413Z,10.01
2018-03-29T02:06:08.415Z,10.00
2018-03-29T02:07:08.418Z,10.02
2018-03-29T02:08:08.438Z,10.02
2018-03-29T02:09:08.431Z,10.02
2018-03-29T02:10:08.441Z,9.99
2018-03-29T02:11:08.460Z,10.00
2018-03-29T02:12:08.459Z,9.97
2018-03-29T02:13:08.463Z,9.97
2018-03-29T02:14:08.472Z,9.96
2018-03-29T02:15:08.496Z,9.96
2018-03-29T02:16:08.487Z,9.94
2018-03-29T02:17:08.488Z,9.92
2018-03-29T02:18:08.411Z,9.91
2018-03-29T02:19:08.396Z,9.88
2018-03-29T02:20:08.422Z,9.88
2018-03-29T02:21:08.425Z,9.89
2018-03-29T02:22:08.432Z,9.88
2018-03-29T02:23:08.433Z,9.87
2018-03-29T02:24:08.258Z,9.87
2018-03-29T02:25:08.446Z,9.89
2018-03-29T02:26:08.489Z,9.88
2018-03-29T02:27:08.371Z,9.87
2018-03-29T02:28:08.378Z,9.89
2018-03-29T02:29:08.475Z,9.91
2018-03-29T02:30:08.395Z,9.91
2018-03-29T02:31:08.502Z,9.92
2018-03-29T02:32:08.394Z,9.93
2018-03-29T02:33:08.404Z,9.92
2018-03-29T02:34:08.418Z,9.88
2018-03-29T02:35:08.434Z,9.90
2018-03-29T02:36:08.441Z,9.91
2018-03-29T02:37:08.434Z,9.91
2018-03-29T02:38:08.433Z,9.90
2018-03-29T02:39:08.451Z,9.91
2018-03-29T02:40:08.483Z,9.91
2018-03-29T02:41:08.470Z,9.94
2018-03-29T02:42:08.479Z,9.91
2018-03-29T02:43:08.487Z,9.91
2018-03-29T02:44:08.490Z,9.92
2018-03-29T02:45:08.491Z,9.93
2018-03-29T02:46:08.502Z,9.93
2018-03-29T02:47:08.411Z,9.95
2018-03-29T02:48:08.414Z,9.95
2018-03-29T02:49:08.426Z,9.98
2018-03-29T02:50:08.436Z,9.99
2018-03-29T02:51:08.431Z,10.00
2018-03-29T02:52:10.675Z,10.02
2018-03-29T02:53:08.488Z,10.02
2018-03-29T02:54:08.451Z,10.04
2018-03-29T02:55:08.470Z,10.05
2018-03-29T02:56:08.373Z,10.06
2018-03-29T02:57:08.481Z,10.06
2018-03-29T02:58:08.483Z,10.07
2018-03-29T02:59:08.499Z,10.01
2018-03-29T03:00:09.630Z,9.97
2018-03-29T03:01:08.500Z,9.95
2018-03-29T03:02:08.518Z,9.92
2018-03-29T03:03:08.518Z,9.92
2018-03-29T03:04:08.425Z,9.88
2018-03-29T03:05:08.438Z,9.84
2018-03-29T03:06:08.450Z,9.83
2018-03-29T03:07:08.450Z,9.83
2018-03-29T03:08:08.457Z,9.80
2018-03-29T03:09:08.458Z,9.79
2018-03-29T03:10:08.478Z,9.81
2018-03-29T03:11:08.474Z,9.77
2018-03-29T03:12:08.486Z,9.79
2018-03-29T03:13:08.493Z,9.79
2018-03-29T03:14:08.494Z,9.77
2018-03-29T03:15:08.513Z,9.77
2018-03-29T03:16:08.505Z,9.77
2018-03-29T03:17:09.579Z,9.76
2018-03-29T03:18:08.534Z,9.76
2018-03-29T03:19:08.442Z,9.74
2018-03-29T03:20:08.442Z,9.75
2018-03-29T03:21:08.441Z,9.75
2018-03-29T03:22:08.464Z,9.74
2018-03-29T03:23:08.454Z,9.72
2018-03-29T03:24:08.466Z,9.71
2018-03-29T03:25:08.484Z,9.71
2018-03-29T03:26:08.474Z,9.72
2018-03-29T03:27:08.490Z,9.73
2018-03-29T03:28:08.507Z,9.74
2018-03-29T03:29:08.500Z,9.77
2018-03-29T03:30:08.535Z,9.81
2018-03-29T03:31:08.523Z,9.81
2018-03-29T03:32:08.526Z,9.84
2018-03-29T03:33:08.556Z,9.86
2018-03-29T03:34:08.468Z,9.88
2018-03-29T03:35:08.446Z,9.90
2018-03-29T03:36:08.458Z,9.90
2018-03-29T03:37:08.490Z,9.91
2018-03-29T03:38:08.493Z,9.93
2018-03-29T03:39:08.476Z,9.95
2018-03-29T03:40:08.481Z,9.97
2018-03-29T03:41:08.484Z,9.97
2018-03-29T03:42:08.488Z,9.99
2018-03-29T03:43:08.506Z,9.99
2018-03-29T03:44:08.514Z,10.00
2018-03-29T03:45:08.523Z,9.99
2018-03-29T03:46:08.522Z,10.00
2018-03-29T03:47:08.544Z,10.01
2018-03-29T03:48:08.534Z,10.02
2018-03-29T03:49:08.450Z,10.04
2018-03-29T03:50:08.464Z,10.06
2018-03-29T03:51:08.470Z,10.08
2018-03-29T03:52:08.457Z,10.09
2018-03-29T03:53:08.469Z,10.10
2018-03-29T03:54:08.490Z,10.10
2018-03-29T03:55:08.514Z,10.11
2018-03-29T03:56:08.507Z,10.11
2018-03-29T03:57:08.397Z,10.13
2018-03-29T03:58:08.526Z,10.13
2018-03-29T03:59:08.518Z,10.13
2018-03-29T04:00:09.659Z,10.11
2018-03-29T04:01:08.538Z,10.10
2018-03-29T04:02:08.542Z,10.10
2018-03-29T04:03:08.554Z,10.10
2018-03-29T04:04:08.454Z,10.10
2018-03-29T04:05:08.452Z,10.11
2018-03-29T04:06:08.466Z,10.10
2018-03-29T04:07:08.475Z,10.10
2018-03-29T04:08:08.498Z,10.10
2018-03-29T04:09:08.491Z,10.10
2018-03-29T04:10:08.512Z,10.12
2018-03-29T04:11:08.506Z,10.11
2018-03-29T04:12:08.510Z,10.10
2018-03-29T04:13:08.525Z,10.10
2018-03-29T04:14:08.544Z,10.09
2018-03-29T04:15:08.542Z,10.10
2018-03-29T04:16:08.552Z,10.08
2018-03-29T04:17:08.544Z,10.07
2018-03-29T04:18:08.563Z,10.03
2018-03-29T04:19:08.666Z,10.04
2018-03-29T04:20:08.475Z,10.03
2018-03-29T04:21:08.477Z,10.03
2018-03-29T04:22:08.476Z,10.03
2018-03-29T04:23:08.689Z,10.02
2018-03-29T04:24:08.499Z,10.01
2018-03-29T04:25:08.497Z,9.99
2018-03-29T04:26:08.517Z,10.00
2018-03-29T04:27:08.522Z,10.00
2018-03-29T04:28:08.532Z,9.99
2018-03-29T04:29:08.541Z,9.97
2018-03-29T04:30:08.450Z,9.98
2018-03-29T04:31:08.540Z,10.00
2018-03-29T04:32:08.453Z,9.96
2018-03-29T04:33:08.557Z,9.97
2018-03-29T04:34:08.565Z,9.96
2018-03-29T04:35:08.464Z,9.95
2018-03-29T04:36:08.275Z,9.94
2018-03-29T04:37:08.477Z,9.94
2018-03-29T04:38:08.490Z,9.95
2018-03-29T04:39:08.506Z,9.96
2018-03-29T04:40:08.420Z,9.97
2018-03-29T04:41:08.517Z,9.96
2018-03-29T04:42:08.417Z,9.96
2018-03-29T04:43:08.522Z,9.97
2018-03-29T04:44:11.189Z,9.96
2018-03-29T04:45:08.550Z,9.96
2018-03-29T04:46:08.553Z,9.96
2018-03-29T04:47:08.678Z,9.97
2018-03-29T04:48:08.583Z,9.97
2018-03-29T04:49:08.576Z,9.99
2018-03-29T04:50:08.373Z,9.99
2018-03-29T04:51:08.484Z,9.99
2018-03-29T04:52:08.497Z,10.00
2018-03-29T04:53:08.507Z,10.03
2018-03-29T04:54:08.614Z,10.03
2018-03-29T04:55:08.526Z,10.00
2018-03-29T04:56:08.517Z,10.03
2018-03-29T04:57:08.524Z,10.03
2018-03-29T04:58:08.543Z,10.04
2018-03-29T04:59:11.254Z,10.05
2018-03-29T05:00:10.327Z,10.04
2018-03-29T05:01:08.591Z,10.02
2018-03-29T05:02:08.567Z,10.04
2018-03-29T05:03:08.568Z,10.04
2018-03-29T05:04:08.586Z,10.05
2018-03-29T05:05:08.481Z,10.06
2018-03-29T05:06:08.495Z,10.05
2018-03-29T05:07:08.498Z,10.06
2018-03-29T05:08:09.490Z,10.05
2018-03-29T05:09:09.518Z,10.05
2018-03-29T05:10:09.496Z,10.05
2018-03-29T05:11:09.641Z,10.07
2018-03-29T05:12:09.537Z,10.08
2018-03-29T05:13:09.609Z,10.09
2018-03-29T05:14:09.841Z,10.10
2018-03-29T05:15:10.274Z,10.10
2018-03-29T05:16:10.288Z,10.09
2018-03-29T05:17:10.144Z,10.09
2018-03-29T05:18:10.139Z,10.12
2018-03-29T05:19:09.996Z,10.13
2018-03-29T05:20:10.023Z,10.14
2018-03-29T05:21:09.849Z,10.13
2018-03-29T05:22:09.927Z,10.13
2018-03-29T05:23:09.703Z,10.08
2018-03-29T05:24:08.571Z,10.07
2018-03-29T05:25:08.429Z,10.07
2018-03-29T05:26:08.441Z,10.06
2018-03-29T05:27:08.436Z,10.06
2018-03-29T05:28:08.458Z,10.09
2018-03-29T05:29:09.443Z,10.12
2018-03-29T05:30:09.759Z,10.15
2018-03-29T05:31:09.578Z,10.16
2018-03-29T05:32:09.657Z,10.18
2018-03-29T05:33:09.650Z,10.19
2018-03-29T05:34:09.873Z,10.21
2018-03-29T05:35:10.233Z,10.23
2018-03-29T05:36:12.484Z,10.24
2018-03-29T05:37:10.142Z,10.24
2018-03-29T05:38:09.546Z,10.26
2018-03-29T05:39:10.307Z,10.27
2018-03-29T05:40:13.140Z,10.29
2018-03-29T05:41:10.167Z,10.30
2018-03-29T05:42:10.228Z,10.31
2018-03-29T05:43:10.661Z,10.34
2018-03-29T05:44:10.530Z,10.36
2018-03-29T05:45:10.980Z,10.38
2018-03-29T05:46:10.858Z,10.39
2018-03-29T05:47:10.574Z,10.40
2018-03-29T05:48:10.785Z,10.42
2018-03-29T05:49:10.109Z,10.44
2018-03-29T05:50:10.265Z,10.47
2018-03-29T05:51:10.165Z,10.47
2018-03-29T05:52:10.520Z,10.49
2018-03-29T05:53:10.011Z,10.51
2018-03-29T05:54:10.105Z,10.49
2018-03-29T05:55:10.120Z,10.52
2018-03-29T05:56:09.933Z,10.51
2018-03-29T05:57:10.222Z,10.50
2018-03-29T05:58:10.671Z,10.49
2018-03-29T05:59:10.012Z,10.49
2018-03-29T06:00:11.281Z,10.54
2018-03-29T06:01:10.042Z,10.56
2018-03-29T06:02:09.903Z,10.59
2018-03-29T06:03:10.192Z,10.59
2018-03-29T06:04:09.875Z,10.61
2018-03-29T06:05:09.884Z,10.63
2018-03-29T06:06:09.905Z,10.64
2018-03-29T06:07:10.028Z,10.66
2018-03-29T06:08:10.249Z,10.67
2018-03-29T06:09:09.612Z,10.70
2018-03-29T06:10:09.730Z,10.71
2018-03-29T06:11:10.345Z,10.73
2018-03-29T06:12:09.860Z,10.74
2018-03-29T06:13:08.563Z,10.75
2018-03-29T06:14:08.469Z,10.79
2018-03-29T06:15:08.146Z,10.82
2018-03-29T06:16:08.498Z,10.85
2018-03-29T06:17:08.401Z,10.88
2018-03-29T06:18:08.607Z,10.88
2018-03-29T06:19:08.614Z,10.90
2018-03-29T06:20:08.630Z,10.92
2018-03-29T06:21:08.526Z,10.95
2018-03-29T06:22:08.434Z,10.97
2018-03-29T06:23:08.587Z,10.99
2018-03-29T06:24:08.541Z,11.02
2018-03-29T06:25:08.342Z,11.05
2018-03-29T06:26:08.149Z,11.10
2018-03-29T06:27:08.457Z,11.08
2018-03-29T06:28:08.582Z,11.08
2018-03-29T06:29:08.620Z,11.08
2018-03-29T06:30:08.639Z,11.08
2018-03-29T06:31:08.597Z,11.13
2018-03-29T06:32:08.606Z,11.13
2018-03-29T06:33:08.610Z,11.18
2018-03-29T06:34:08.617Z,11.16
2018-03-29T06:35:08.632Z,11.14
2018-03-29T06:36:11.293Z,11.08
2018-03-29T06:37:08.542Z,11.07
2018-03-29T06:38:08.558Z,11.06
2018-03-29T06:39:08.553Z,11.08
2018-03-29T06:40:08.557Z,11.13
2018-03-29T06:41:08.570Z,11.12
2018-03-29T06:42:08.579Z,11.12
2018-03-29T06:43:08.587Z,11.10
2018-03-29T06:44:09.718Z,11.12
2018-03-29T06:45:08.590Z,11.17
2018-03-29T06:46:08.601Z,11.16
2018-03-29T06:47:08.638Z,11.21
2018-03-29T06:48:08.609Z,11.26
2018-03-29T06:49:08.620Z,11.29
2018-03-29T06:50:08.641Z,11.29
2018-03-29T06:51:08.642Z,11.28
2018-03-29T06:52:08.540Z,11.30
2018-03-29T06:53:08.550Z,11.31
2018-03-29T06:54:08.560Z,11.32
2018-03-29T06:55:08.570Z,11.28
2018-03-29T06:56:08.582Z,11.24
2018-03-29T06:57:08.581Z,11.18
2018-03-29T06:58:08.591Z,11.21
2018-03-29T06:59:08.598Z,11.22
2018-03-29T07:00:09.731Z,11.19
2018-03-29T07:01:08.648Z,11.17
2018-03-29T07:02:08.614Z,11.14
2018-03-29T07:03:08.632Z,11.17
2018-03-29T07:04:08.623Z,11.19
2018-03-29T07:05:08.638Z,11.20
2018-03-29T07:06:08.650Z,11.17
2018-03-29T07:07:09.727Z,11.17
2018-03-29T07:08:08.557Z,11.18
2018-03-29T07:09:08.567Z,11.21
2018-03-29T07:10:08.589Z,11.24
2018-03-29T07:11:08.482Z,11.27
2018-03-29T07:12:08.586Z,11.29
2018-03-29T07:13:08.601Z,11.30
2018-03-29T07:14:08.604Z,11.33
2018-03-29T07:15:08.609Z,11.38
2018-03-29T07:16:08.622Z,11.40
2018-03-29T07:17:08.620Z,11.44
2018-03-29T07:18:08.628Z,11.46
2018-03-29T07:19:08.650Z,11.48
2018-03-29T07:20:08.660Z,11.50
2018-03-29T07:21:08.546Z,11.50
2018-03-29T07:22:08.557Z,11.49
2018-03-29T07:23:08.573Z,11.48
2018-03-29T07:24:08.569Z,11.47
2018-03-29T07:25:08.590Z,11.51
2018-03-29T07:26:08.581Z,11.55
2018-03-29T07:27:28.077Z,11.61
2018-03-29T07:28:08.597Z,11.66
2018-03-29T07:29:08.622Z,11.70
2018-03-29T07:30:08.638Z,11.74
2018-03-29T07:31:08.622Z,11.78
2018-03-29T07:32:08.629Z,11.83
2018-03-29T07:33:08.639Z,11.85
2018-03-29T07:34:08.648Z,11.85
2018-03-29T07:35:12.495Z,11.86
2018-03-29T07:36:09.632Z,11.87
2018-03-29T07:37:09.534Z,11.89
2018-03-29T07:38:09.472Z,11.91
2018-03-29T07:39:09.862Z,11.91
2018-03-29T07:40:12.610Z,11.92
2018-03-29T07:41:11.756Z,11.92
2018-03-29T07:42:09.830Z,11.93
2018-03-29T07:43:09.918Z,11.93
2018-03-29T07:44:10.190Z,11.95
2018-03-29T07:45:10.151Z,11.96
2018-03-29T07:46:10.071Z,11.97
2018-03-29T07:47:09.693Z,11.97
2018-03-29T07:48:09.618Z,11.99
2018-03-29T07:49:08.558Z,12.01
2018-03-29T07:50:08.202Z,12.02
2018-03-29T07:51:08.206Z,12.04
2018-03-29T07:52:08.465Z,12.05
2018-03-29T07:53:08.477Z,12.07
2018-03-29T07:54:08.589Z,12.07
2018-03-29T07:55:08.623Z,12.09
2018-03-29T07:56:08.502Z,12.09
2018-03-29T07:57:08.602Z,12.09
2018-03-29T07:58:08.614Z,12.09
2018-03-29T07:59:08.620Z,12.07
2018-03-29T08:00:09.885Z,12.06
2018-03-29T08:01:08.637Z,12.06
2018-03-29T08:02:08.658Z,12.07
2018-03-29T08:03:08.655Z,12.08
2018-03-29T08:04:08.658Z,12.05
2018-03-29T08:05:08.664Z,12.04
2018-03-29T08:06:08.681Z,12.05
2018-03-29T08:07:08.688Z,12.07
2018-03-29T08:08:08.590Z,12.08
2018-03-29T08:09:09.227Z,12.07
2018-03-29T08:10:08.609Z,12.07
2018-03-29T08:11:08.509Z,12.10
2018-03-29T08:12:08.607Z,12.09
2018-03-29T08:13:08.624Z,11.99
2018-03-29T08:14:08.635Z,11.94
2018-03-29T08:15:08.630Z,11.90
2018-03-29T08:16:08.638Z,11.89
2018-03-29T08:17:08.557Z,11.90
2018-03-29T08:18:08.654Z,11.91
2018-03-29T08:19:08.672Z,11.95
2018-03-29T08:20:08.699Z,11.95
2018-03-29T08:21:08.674Z,11.94
2018-03-29T08:22:08.681Z,11.99
2018-03-29T08:23:08.585Z,12.04
2018-03-29T08:24:08.626Z,12.07
2018-03-29T08:25:08.606Z,12.06
2018-03-29T08:26:08.509Z,12.08
2018-03-29T08:27:08.617Z,12.06
2018-03-29T08:28:08.640Z,12.09
2018-03-29T08:29:08.630Z,12.07
2018-03-29T08:30:08.646Z,12.08
2018-03-29T08:31:08.645Z,12.09
2018-03-29T08:32:08.655Z,12.07
2018-03-29T08:33:08.666Z,12.09
2018-03-29T08:34:08.674Z,12.08
2018-03-29T08:35:08.677Z,12.08
2018-03-29T08:36:08.687Z,12.07
2018-03-29T08:37:08.694Z,12.01
2018-03-29T08:38:08.708Z,11.94
2018-03-29T08:39:08.603Z,11.92
2018-03-29T08:40:08.617Z,11.92
2018-03-29T08:41:08.627Z,11.92
2018-03-29T08:42:08.629Z,11.92
2018-03-29T08:43:08.643Z,11.89
2018-03-29T08:44:08.634Z,11.87
2018-03-29T08:45:08.641Z,11.86
2018-03-29T08:46:08.671Z,11.84
2018-03-29T08:47:08.661Z,11.84
2018-03-29T08:48:08.716Z,11.83
2018-03-29T08:49:08.683Z,11.84
2018-03-29T08:50:08.686Z,11.82
2018-03-29T08:51:08.718Z,11.80
2018-03-29T08:52:08.714Z,11.82
2018-03-29T08:53:08.733Z,11.83
2018-03-29T08:54:08.611Z,11.84
2018-03-29T08:55:08.620Z,11.82
2018-03-29T08:56:11.409Z,11.83
2018-03-29T08:57:08.663Z,11.79
2018-03-29T08:58:11.714Z,11.76
2018-03-29T08:59:08.674Z,11.77
2018-03-29T09:00:09.886Z,11.76
2018-03-29T09:01:08.663Z,11.72
2018-03-29T09:02:08.682Z,11.72
2018-03-29T09:03:08.678Z,11.70
2018-03-29T09:04:08.687Z,11.73
2018-03-29T09:05:08.586Z,11.73
2018-03-29T09:06:08.798Z,11.74
2018-03-29T09:07:08.701Z,11.74
2018-03-29T09:08:08.714Z,11.72
2018-03-29T09:09:08.621Z,11.73
2018-03-29T09:10:08.618Z,11.73
2018-03-29T09:11:08.630Z,11.75
2018-03-29T09:12:08.640Z,11.73
2018-03-29T09:13:08.647Z,11.73
2018-03-29T09:14:08.656Z,11.72
2018-03-29T09:15:08.667Z,11.72
2018-03-29T09:16:08.673Z,11.71
2018-03-29T09:17:08.566Z,11.75
2018-03-29T09:18:09.309Z,11.73
2018-03-29T09:19:08.481Z,11.75
2018-03-29T09:20:08.695Z,11.75
2018-03-29T09:21:08.702Z,11.78
2018-03-29T09:22:08.723Z,11.81
2018-03-29T09:23:08.619Z,11.83
2018-03-29T09:24:08.519Z,11.86
2018-03-29T09:25:17.244Z,11.86
2018-03-29T09:26:14.329Z,11.87
2018-03-29T09:27:08.537Z,11.88
2018-03-29T09:28:08.567Z,11.86
2018-03-29T09:29:08.274Z,11.87
2018-03-29T09:30:08.561Z,11.86
2018-03-29T09:31:08.569Z,11.83
2018-03-29T09:32:08.585Z,11.81
2018-03-29T09:33:08.707Z,11.79
2018-03-29T09:34:08.697Z,11.79
2018-03-29T09:35:08.737Z,11.82
2018-03-29T09:36:08.709Z,11.81
2018-03-29T09:37:08.726Z,11.83
2018-03-29T09:38:08.763Z,11.83
2018-03-29T09:39:08.636Z,11.84
2018-03-29T09:40:08.642Z,11.87
2018-03-29T09:41:08.645Z,11.89
2018-03-29T09:42:08.650Z,11.89
2018-03-29T09:43:08.657Z,11.90
2018-03-29T09:44:08.705Z,11.90
2018-03-29T09:45:08.674Z,11.88
2018-03-29T09:46:08.678Z,11.87
2018-03-29T09:47:08.684Z,11.91
2018-03-29T09:48:08.699Z,11.94
2018-03-29T09:49:08.706Z,11.94
2018-03-29T09:50:08.705Z,11.95
2018-03-29T09:51:08.512Z,11.98
2018-03-29T09:52:08.721Z,12.00
2018-03-29T09:53:08.829Z,12.04
2018-03-29T09:54:08.538Z,12.11
2018-03-29T09:55:08.633Z,12.17
2018-03-29T09:56:08.657Z,12.17
2018-03-29T09:57:08.662Z,12.20
2018-03-29T09:58:08.586Z,12.24
2018-03-29T09:59:08.780Z,12.19
2018-03-29T10:00:09.927Z,12.16
2018-03-29T10:01:08.690Z,12.18
2018-03-29T10:02:08.710Z,12.18
2018-03-29T10:03:08.704Z,12.17
2018-03-29T10:04:08.714Z,12.17
2018-03-29T10:05:08.771Z,12.17
2018-03-29T10:06:08.733Z,12.17
2018-03-29T10:07:08.728Z,12.15
2018-03-29T10:08:08.750Z,12.12
2018-03-29T10:09:08.541Z,12.07
2018-03-29T10:10:08.276Z,12.04
2018-03-29T10:11:08.273Z,12.04
2018-03-29T10:12:08.692Z,12.04
2018-03-29T10:13:08.681Z,12.03
2018-03-29T10:14:08.681Z,12.06
2018-03-29T10:15:08.805Z,12.07
2018-03-29T10:16:08.708Z,12.06
2018-03-29T10:17:08.715Z,12.02
2018-03-29T10:18:08.705Z,12.01
2018-03-29T10:19:08.722Z,12.00
2018-03-29T10:20:08.718Z,11.99
2018-03-29T10:21:08.725Z,11.97
2018-03-29T10:22:08.754Z,11.95
2018-03-29T10:23:08.737Z,11.96
2018-03-29T10:24:08.741Z,11.94
2018-03-29T10:25:08.655Z,11.94
2018-03-29T10:26:08.675Z,11.93
2018-03-29T10:27:11.630Z,11.96
2018-03-29T10:28:09.097Z,11.99
2018-03-29T10:29:08.886Z,11.99
2018-03-29T10:30:09.126Z,11.97
2018-03-29T10:31:08.899Z,11.94
2018-03-29T10:32:08.710Z,11.98
2018-03-29T10:33:08.710Z,12.04
2018-03-29T10:34:08.717Z,12.08
2018-03-29T10:35:08.734Z,12.13
2018-03-29T10:36:08.741Z,12.13
2018-03-29T10:37:08.746Z,12.17
2018-03-29T10:38:08.757Z,12.24
2018-03-29T10:39:08.752Z,12.27
2018-03-29T10:40:08.671Z,12.27
2018-03-29T10:41:08.708Z,12.30
2018-03-29T10:42:08.781Z,12.36
2018-03-29T10:43:08.686Z,12.46
2018-03-29T10:44:08.691Z,12.54
2018-03-29T10:45:08.798Z,12.56
2018-03-29T10:46:08.715Z,12.55
2018-03-29T10:47:08.715Z,12.51
2018-03-29T10:48:08.727Z,12.54
2018-03-29T10:49:08.722Z,12.55
2018-03-29T10:50:08.733Z,12.51
2018-03-29T10:51:08.742Z,12.48
2018-03-29T10:52:08.751Z,12.46
2018-03-29T10:53:10.237Z,12.48
2018-03-29T10:54:08.770Z,12.48
2018-03-29T10:55:08.668Z,12.46
2018-03-29T10:56:08.574Z,12.45
2018-03-29T10:57:08.685Z,12.45
2018-03-29T10:58:08.723Z,12.46
2018-03-29T10:59:08.802Z,12.44
2018-03-29T11:00:10.037Z,12.42
2018-03-29T11:01:08.720Z,12.41
2018-03-29T11:02:08.730Z,12.37
2018-03-29T11:03:08.732Z,12.34
2018-03-29T11:04:08.738Z,12.33
2018-03-29T11:05:08.746Z,12.38
2018-03-29T11:06:08.753Z,12.41
2018-03-29T11:07:08.763Z,12.45
2018-03-29T11:08:08.758Z,12.48
2018-03-29T11:09:08.777Z,12.48
2018-03-29T11:10:08.818Z,12.48
2018-03-29T11:11:08.689Z,12.47
2018-03-29T11:12:08.697Z,12.48
2018-03-29T11:13:09.012Z,12.52
2018-03-29T11:14:08.716Z,12.53
2018-03-29T11:15:08.721Z,12.51
2018-03-29T11:16:08.713Z,12.50
2018-03-29T11:17:08.835Z,12.50
2018-03-29T11:18:08.745Z,12.51
2018-03-29T11:19:08.739Z,12.55
2018-03-29T11:20:08.748Z,12.58
2018-03-29T11:21:08.767Z,12.60
2018-03-29T11:22:08.789Z,12.62
2018-03-29T11:23:08.794Z,12.63
2018-03-29T11:24:08.773Z,12.64
2018-03-29T11:25:08.786Z,12.67
2018-03-29T11:26:08.590Z,12.69
2018-03-29T11:27:08.703Z,12.69
2018-03-29T11:28:08.808Z,12.69
2018-03-29T11:29:08.714Z,12.71
2018-03-29T11:30:08.727Z,12.77
2018-03-29T11:31:08.730Z,12.78
2018-03-29T11:32:08.735Z,12.80
2018-03-29T11:33:08.746Z,12.78
2018-03-29T11:34:08.767Z,12.79
2018-03-29T11:35:08.763Z,12.77
2018-03-29T11:36:08.774Z,12.77
2018-03-29T11:37:08.798Z,12.78
2018-03-29T11:38:08.782Z,12.76
2018-03-29T11:39:08.795Z,12.73
2018-03-29T11:40:08.793Z,12.71
2018-03-29T11:41:08.734Z,12.71
2018-03-29T11:42:08.734Z,12.69
2018-03-29T11:43:08.762Z,12.66
2018-03-29T11:44:08.621Z,12.64
2018-03-29T11:45:10.877Z,12.59
2018-03-29T11:46:08.742Z,12.54
2018-03-29T11:47:08.734Z,12.51
2018-03-29T11:48:08.753Z,12.49
2018-03-29T11:49:08.768Z,12.48
2018-03-29T11:50:08.762Z,12.47
2018-03-29T11:51:08.765Z,12.46
2018-03-29T11:52:08.791Z,12.49
2018-03-29T11:53:08.779Z,12.49
2018-03-29T11:54:08.788Z,12.48
2018-03-29T11:55:08.806Z,12.46
2018-03-29T11:56:08.710Z,12.44
2018-03-29T11:57:08.707Z,12.45
2018-03-29T11:58:08.817Z,12.42
2018-03-29T11:59:08.720Z,12.42
2018-03-29T12:00:09.960Z,12.43
2018-03-29T12:01:08.735Z,12.42
2018-03-29T12:02:08.642Z,12.43
2018-03-29T12:03:08.746Z,12.42
2018-03-29T12:04:08.756Z,12.43
2018-03-29T12:05:08.788Z,12.44
2018-03-29T12:06:08.769Z,12.46
2018-03-29T12:07:08.779Z,12.49
2018-03-29T12:08:08.792Z,12.50
2018-03-29T12:09:08.790Z,12.52
2018-03-29T12:10:10.413Z,12.50
2018-03-29T12:11:08.810Z,12.49
2018-03-29T12:12:08.725Z,12.49
2018-03-29T12:13:08.718Z,12.51
2018-03-29T12:14:10.136Z,12.53
2018-03-29T12:15:09.631Z,12.52
2018-03-29T12:16:09.914Z,12.53
2018-03-29T12:17:09.865Z,12.52
2018-03-29T12:18:09.777Z,12.53
2018-03-29T12:19:09.251Z,12.52
2018-03-29T12:20:09.412Z,12.48
2018-03-29T12:21:11.578Z,12.43
2018-03-29T12:22:10.432Z,12.41
2018-03-29T12:23:09.997Z,12.38
2018-03-29T12:24:09.801Z,12.37
2018-03-29T12:25:09.644Z,12.33
2018-03-29T12:26:09.810Z,12.31
2018-03-29T12:27:09.506Z,12.30
2018-03-29T12:28:09.904Z,12.28
2018-03-29T12:29:10.631Z,12.28
2018-03-29T12:30:09.696Z,12.27
2018-03-29T12:31:11.719Z,12.24
2018-03-29T12:32:09.222Z,12.25
2018-03-29T12:33:09.350Z,12.23
2018-03-29T12:34:09.257Z,12.25
2018-03-29T12:35:09.396Z,12.24
2018-03-29T12:36:09.562Z,12.20
2018-03-29T12:37:09.184Z,12.18
2018-03-29T12:38:09.804Z,12.19
2018-03-29T12:39:09.693Z,12.19
2018-03-29T12:40:09.846Z,12.19
2018-03-29T12:41:10.303Z,12.21
2018-03-29T12:42:08.634Z,12.24
2018-03-29T12:43:08.728Z,12.25
2018-03-29T12:44:08.805Z,12.27
2018-03-29T12:45:08.375Z,12.29
2018-03-29T12:46:08.758Z,12.30
2018-03-29T12:47:08.772Z,12.31
2018-03-29T12:48:08.789Z,12.31
2018-03-29T12:49:08.778Z,12.29
2018-03-29T12:50:08.691Z,12.26
2018-03-29T12:51:08.829Z,12.26
2018-03-29T12:52:08.813Z,12.25
2018-03-29T12:53:08.806Z,12.25
2018-03-29T12:54:08.822Z,12.26
2018-03-29T12:55:08.821Z,12.28
2018-03-29T12:56:08.830Z,12.28